sensor_id;sensor_type;location;lat;lon;timestamp;P1;durP1;ratioP1;P2;durP2;ratioP2
37164;SDS011;23057;48.554;14.454;2023-11-18T00:00:24;2.60;;;2.35;;
37164;SDS011;23057;48.554;14.454;2023-11-18T00:02:54;3.33;;;2.10;;
37164;SDS011;23057;48.554;14.454;2023-11-18T00:05:25;3.47;;;2.35;;
37164;SDS011;23057;48.554;14.454;2023-11-18T00:07:56;6.28;;;2.88;;
37164;SDS011;23057;48.554;14.454;2023-11-18T00:10:27;3.15;;;2.47;;
37164;SDS011;23057;48.554;14.454;2023-11-18T00:12:59;4.15;;;2.70;;
37164;SDS011;23057;48.554;14.454;2023-11-18T00:15:31;5.00;;;2.45;;
37164;SDS011;23057;48.554;14.454;2023-11-18T00:18:05;4.07;;;2.10;;
37164;SDS011;23057;48.554;14.454;2023-11-18T00:20:36;2.90;;;1.95;;
37164;SDS011;23057;48.554;14.454;2023-11-18T00:23:07;2.65;;;2.10;;
37164;SDS011;23057;48.554;14.454;2023-11-18T00:25:38;4.07;;;2.20;;
37164;SDS011;23057;48.554;14.454;2023-11-18T00:28:10;2.67;;;1.90;;
37164;SDS011;23057;48.554;14.454;2023-11-18T00:30:44;4.25;;;2.20;;
37164;SDS011;23057;48.554;14.454;2023-11-18T00:33:15;3.13;;;2.13;;
37164;SDS011;23057;48.554;14.454;2023-11-18T00:35:46;4.30;;;2.55;;
37164;SDS011;23057;48.554;14.454;2023-11-18T00:38:17;2.42;;;1.92;;
37164;SDS011;23057;48.554;14.454;2023-11-18T00:40:48;2.67;;;1.92;;
37164;SDS011;23057;48.554;14.454;2023-11-18T00:43:18;5.28;;;2.17;;
37164;SDS011;23057;48.554;14.454;2023-11-18T00:45:49;2.38;;;1.90;;
37164;SDS011;23057;48.554;14.454;2023-11-18T00:48:21;3.00;;;2.08;;
37164;SDS011;23057;48.554;14.454;2023-11-18T00:50:52;5.00;;;1.80;;
37164;SDS011;23057;48.554;14.454;2023-11-18T00:53:23;4.00;;;2.10;;
37164;SDS011;23057;48.554;14.454;2023-11-18T00:55:54;2.38;;;2.15;;
37164;SDS011;23057;48.554;14.454;2023-11-18T00:58:25;3.00;;;2.05;;
37164;SDS011;23057;48.554;14.454;2023-11-18T01:00:55;2.60;;;1.85;;
37164;SDS011;23057;48.554;14.454;2023-11-18T01:03:26;3.45;;;2.22;;
37164;SDS011;23057;48.554;14.454;2023-11-18T01:05:57;3.25;;;2.08;;
37164;SDS011;23057;48.554;14.454;2023-11-18T01:08:29;6.97;;;2.00;;
37164;SDS011;23057;48.554;14.454;2023-11-18T01:11:00;2.00;;;1.45;;
37164;SDS011;23057;48.554;14.454;2023-11-18T01:13:30;3.92;;;2.10;;
37164;SDS011;23057;48.554;14.454;2023-11-18T01:16:01;2.95;;;1.98;;
37164;SDS011;23057;48.554;14.454;2023-11-18T01:18:34;2.75;;;2.10;;
37164;SDS011;23057;48.554;14.454;2023-11-18T01:21:05;2.95;;;2.00;;
37164;SDS011;23057;48.554;14.454;2023-11-18T01:23:39;3.10;;;2.15;;
37164;SDS011;23057;48.554;14.454;2023-11-18T01:26:14;2.78;;;2.08;;
37164;SDS011;23057;48.554;14.454;2023-11-18T01:28:45;5.35;;;1.80;;
37164;SDS011;23057;48.554;14.454;2023-11-18T01:31:16;7.43;;;2.30;;
37164;SDS011;23057;48.554;14.454;2023-11-18T01:33:47;3.63;;;2.20;;
37164;SDS011;23057;48.554;14.454;2023-11-18T01:36:20;3.13;;;2.10;;
37164;SDS011;23057;48.554;14.454;2023-11-18T01:38:50;2.75;;;1.92;;
37164;SDS011;23057;48.554;14.454;2023-11-18T01:41:21;2.90;;;1.90;;
37164;SDS011;23057;48.554;14.454;2023-11-18T01:43:52;3.53;;;2.00;;
37164;SDS011;23057;48.554;14.454;2023-11-18T01:46:23;4.82;;;2.10;;
37164;SDS011;23057;48.554;14.454;2023-11-18T01:48:55;2.50;;;1.70;;
37164;SDS011;23057;48.554;14.454;2023-11-18T01:51:28;2.03;;;1.83;;
37164;SDS011;23057;48.554;14.454;2023-11-18T01:54:00;2.42;;;1.67;;
37164;SDS011;23057;48.554;14.454;2023-11-18T01:56:35;3.05;;;1.92;;
37164;SDS011;23057;48.554;14.454;2023-11-18T01:59:06;2.90;;;2.08;;
37164;SDS011;23057;48.554;14.454;2023-11-18T02:01:40;5.03;;;2.13;;
37164;SDS011;23057;48.554;14.454;2023-11-18T02:04:13;2.67;;;1.50;;
37164;SDS011;23057;48.554;14.454;2023-11-18T02:06:46;3.15;;;1.70;;
37164;SDS011;23057;48.554;14.454;2023-11-18T02:09:20;7.40;;;1.95;;
37164;SDS011;23057;48.554;14.454;2023-11-18T02:15:12;2.15;;;1.90;;
37164;SDS011;23057;48.554;14.454;2023-11-18T02:17:47;4.35;;;1.65;;
37164;SDS011;23057;48.554;14.454;2023-11-18T02:20:23;4.00;;;1.88;;
37164;SDS011;23057;48.554;14.454;2023-11-18T02:22:56;2.50;;;1.55;;
37164;SDS011;23057;48.554;14.454;2023-11-18T02:25:29;2.72;;;1.83;;
37164;SDS011;23057;48.554;14.454;2023-11-18T02:28:09;2.63;;;1.80;;
37164;SDS011;23057;48.554;14.454;2023-11-18T02:30:40;2.20;;;1.52;;
37164;SDS011;23057;48.554;14.454;2023-11-18T02:33:15;2.53;;;1.73;;
37164;SDS011;23057;48.554;14.454;2023-11-18T02:36:00;2.40;;;1.67;;
37164;SDS011;23057;48.554;14.454;2023-11-18T02:39:08;2.38;;;1.80;;
37164;SDS011;23057;48.554;14.454;2023-11-18T02:41:51;2.78;;;1.80;;
37164;SDS011;23057;48.554;14.454;2023-11-18T02:44:27;1.73;;;1.52;;
37164;SDS011;23057;48.554;14.454;2023-11-18T02:47:02;2.00;;;1.55;;
37164;SDS011;23057;48.554;14.454;2023-11-18T02:49:37;2.25;;;1.92;;
37164;SDS011;23057;48.554;14.454;2023-11-18T02:52:08;1.77;;;1.55;;
37164;SDS011;23057;48.554;14.454;2023-11-18T02:54:39;1.95;;;1.33;;
37164;SDS011;23057;48.554;14.454;2023-11-18T02:57:10;2.50;;;1.70;;
37164;SDS011;23057;48.554;14.454;2023-11-18T02:59:43;2.22;;;2.03;;
37164;SDS011;23057;48.554;14.454;2023-11-18T03:02:16;4.63;;;1.70;;
37164;SDS011;23057;48.554;14.454;2023-11-18T03:04:50;2.03;;;1.50;;
37164;SDS011;23057;48.554;14.454;2023-11-18T03:07:21;2.05;;;1.80;;
37164;SDS011;23057;48.554;14.454;2023-11-18T03:09:52;2.22;;;1.58;;
37164;SDS011;23057;48.554;14.454;2023-11-18T03:12:27;3.03;;;1.73;;
37164;SDS011;23057;48.554;14.454;2023-11-18T03:14:58;1.65;;;1.30;;
37164;SDS011;23057;48.554;14.454;2023-11-18T03:17:29;1.85;;;1.40;;
37164;SDS011;23057;48.554;14.454;2023-11-18T03:20:00;1.45;;;1.35;;
37164;SDS011;23057;48.554;14.454;2023-11-18T03:22:31;3.33;;;1.52;;
37164;SDS011;23057;48.554;14.454;2023-11-18T03:25:01;1.67;;;1.30;;
37164;SDS011;23057;48.554;14.454;2023-11-18T03:27:32;2.00;;;1.63;;
37164;SDS011;23057;48.554;14.454;2023-11-18T03:30:04;1.60;;;1.33;;
37164;SDS011;23057;48.554;14.454;2023-11-18T03:32:40;1.52;;;1.20;;
37164;SDS011;23057;48.554;14.454;2023-11-18T03:35:11;1.98;;;1.42;;
37164;SDS011;23057;48.554;14.454;2023-11-18T03:37:42;1.75;;;1.30;;
37164;SDS011;23057;48.554;14.454;2023-11-18T03:40:13;2.47;;;1.45;;
37164;SDS011;23057;48.554;14.454;2023-11-18T03:42:45;1.95;;;1.55;;
37164;SDS011;23057;48.554;14.454;2023-11-18T03:45:18;2.90;;;1.65;;
37164;SDS011;23057;48.554;14.454;2023-11-18T03:47:50;1.30;;;1.20;;
37164;SDS011;23057;48.554;14.454;2023-11-18T03:50:21;2.47;;;1.52;;
37164;SDS011;23057;48.554;14.454;2023-11-18T03:52:52;3.33;;;1.52;;
37164;SDS011;23057;48.554;14.454;2023-11-18T03:55:23;1.38;;;1.27;;
37164;SDS011;23057;48.554;14.454;2023-11-18T03:57:56;5.05;;;1.50;;
37164;SDS011;23057;48.554;14.454;2023-11-18T04:00:27;2.30;;;1.85;;
37164;SDS011;23057;48.554;14.454;2023-11-18T04:02:59;1.30;;;1.20;;
37164;SDS011;23057;48.554;14.454;2023-11-18T04:05:30;1.33;;;1.23;;
37164;SDS011;23057;48.554;14.454;2023-11-18T04:08:01;1.80;;;1.40;;
37164;SDS011;23057;48.554;14.454;2023-11-18T04:10:32;2.30;;;1.38;;
37164;SDS011;23057;48.554;14.454;2023-11-18T04:13:03;0.98;;;0.93;;
37164;SDS011;23057;48.554;14.454;2023-11-18T04:15:34;1.30;;;1.20;;
37164;SDS011;23057;48.554;14.454;2023-11-18T04:18:05;4.15;;;1.52;;
37164;SDS011;23057;48.554;14.454;2023-11-18T04:20:36;1.50;;;1.27;;
37164;SDS011;23057;48.554;14.454;2023-11-18T04:23:07;2.08;;;1.17;;
37164;SDS011;23057;48.554;14.454;2023-11-18T04:25:39;2.25;;;1.27;;
37164;SDS011;23057;48.554;14.454;2023-11-18T04:28:09;1.73;;;1.30;;
37164;SDS011;23057;48.554;14.454;2023-11-18T04:30:40;1.50;;;1.10;;
37164;SDS011;23057;48.554;14.454;2023-11-18T04:33:11;2.95;;;1.30;;
37164;SDS011;23057;48.554;14.454;2023-11-18T04:35:45;1.27;;;1.17;;
37164;SDS011;23057;48.554;14.454;2023-11-18T04:38:17;2.13;;;1.02;;
37164;SDS011;23057;48.554;14.454;2023-11-18T04:40:49;2.58;;;2.38;;
37164;SDS011;23057;48.554;14.454;2023-11-18T04:43:21;1.20;;;1.10;;
37164;SDS011;23057;48.554;14.454;2023-11-18T04:45:54;1.48;;;1.30;;
37164;SDS011;23057;48.554;14.454;2023-11-18T04:48:26;1.33;;;1.20;;
37164;SDS011;23057;48.554;14.454;2023-11-18T04:50:57;1.40;;;1.23;;
37164;SDS011;23057;48.554;14.454;2023-11-18T04:53:28;1.35;;;1.20;;
37164;SDS011;23057;48.554;14.454;2023-11-18T04:55:58;1.70;;;1.20;;
37164;SDS011;23057;48.554;14.454;2023-11-18T04:58:29;1.42;;;1.20;;
37164;SDS011;23057;48.554;14.454;2023-11-18T05:01:00;1.05;;;1.00;;
37164;SDS011;23057;48.554;14.454;2023-11-18T05:03:31;1.95;;;1.17;;
37164;SDS011;23057;48.554;14.454;2023-11-18T05:06:02;1.10;;;1.00;;
37164;SDS011;23057;48.554;14.454;2023-11-18T05:08:34;1.17;;;1.08;;
37164;SDS011;23057;48.554;14.454;2023-11-18T05:11:06;2.05;;;1.20;;
37164;SDS011;23057;48.554;14.454;2023-11-18T05:13:37;1.20;;;0.90;;
37164;SDS011;23057;48.554;14.454;2023-11-18T05:16:10;1.25;;;0.93;;
37164;SDS011;23057;48.554;14.454;2023-11-18T05:18:40;1.10;;;1.02;;
37164;SDS011;23057;48.554;14.454;2023-11-18T05:21:11;1.15;;;1.05;;
37164;SDS011;23057;48.554;14.454;2023-11-18T05:23:42;1.15;;;1.05;;
37164;SDS011;23057;48.554;14.454;2023-11-18T05:26:14;1.10;;;1.00;;
37164;SDS011;23057;48.554;14.454;2023-11-18T05:28:44;1.30;;;1.05;;
37164;SDS011;23057;48.554;14.454;2023-11-18T05:31:15;1.10;;;1.00;;
37164;SDS011;23057;48.554;14.454;2023-11-18T05:33:46;1.10;;;1.00;;
37164;SDS011;23057;48.554;14.454;2023-11-18T05:36:21;1.23;;;1.08;;
37164;SDS011;23057;48.554;14.454;2023-11-18T05:38:56;0.82;;;0.82;;
37164;SDS011;23057;48.554;14.454;2023-11-18T05:41:27;2.13;;;1.38;;
37164;SDS011;23057;48.554;14.454;2023-11-18T05:44:00;13.68;;;5.68;;
37164;SDS011;23057;48.554;14.454;2023-11-18T05:46:31;2.88;;;2.20;;
37164;SDS011;23057;48.554;14.454;2023-11-18T05:49:02;1.13;;;1.02;;
37164;SDS011;23057;48.554;14.454;2023-11-18T05:51:38;1.40;;;1.20;;
37164;SDS011;23057;48.554;14.454;2023-11-18T05:54:09;2.67;;;1.50;;
37164;SDS011;23057;48.554;14.454;2023-11-18T05:56:40;4.35;;;2.60;;
37164;SDS011;23057;48.554;14.454;2023-11-18T05:59:11;5.60;;;4.40;;
37164;SDS011;23057;48.554;14.454;2023-11-18T06:01:43;8.70;;;6.85;;
37164;SDS011;23057;48.554;14.454;2023-11-18T06:04:14;10.98;;;7.30;;
37164;SDS011;23057;48.554;14.454;2023-11-18T06:06:45;17.40;;;13.43;;
37164;SDS011;23057;48.554;14.454;2023-11-18T06:09:17;5.90;;;5.10;;
37164;SDS011;23057;48.554;14.454;2023-11-18T06:11:51;3.03;;;1.98;;
37164;SDS011;23057;48.554;14.454;2023-11-18T06:14:23;5.03;;;3.30;;
37164;SDS011;23057;48.554;14.454;2023-11-18T06:16:55;4.70;;;2.28;;
37164;SDS011;23057;48.554;14.454;2023-11-18T06:19:26;6.60;;;4.45;;
37164;SDS011;23057;48.554;14.454;2023-11-18T06:21:57;23.38;;;10.98;;
37164;SDS011;23057;48.554;14.454;2023-11-18T06:24:28;8.75;;;5.20;;
37164;SDS011;23057;48.554;14.454;2023-11-18T06:26:58;14.02;;;7.03;;
37164;SDS011;23057;48.554;14.454;2023-11-18T06:29:29;32.22;;;15.93;;
37164;SDS011;23057;48.554;14.454;2023-11-18T06:32:00;16.33;;;10.05;;
37164;SDS011;23057;48.554;14.454;2023-11-18T06:34:31;16.10;;;8.13;;
37164;SDS011;23057;48.554;14.454;2023-11-18T06:37:02;29.23;;;10.57;;
37164;SDS011;23057;48.554;14.454;2023-11-18T06:39:35;77.47;;;24.65;;
37164;SDS011;23057;48.554;14.454;2023-11-18T06:44:44;56.03;;;18.88;;
37164;SDS011;23057;48.554;14.454;2023-11-18T06:47:15;16.15;;;6.18;;
37164;SDS011;23057;48.554;14.454;2023-11-18T06:49:49;7.18;;;3.25;;
37164;SDS011;23057;48.554;14.454;2023-11-18T06:52:22;4.28;;;2.78;;
37164;SDS011;23057;48.554;14.454;2023-11-18T06:54:53;7.45;;;3.38;;
37164;SDS011;23057;48.554;14.454;2023-11-18T06:57:24;10.63;;;4.78;;
37164;SDS011;23057;48.554;14.454;2023-11-18T06:59:56;13.15;;;10.35;;
37164;SDS011;23057;48.554;14.454;2023-11-18T07:02:27;11.57;;;8.95;;
37164;SDS011;23057;48.554;14.454;2023-11-18T07:04:57;9.80;;;5.07;;
37164;SDS011;23057;48.554;14.454;2023-11-18T07:07:28;10.90;;;7.28;;
37164;SDS011;23057;48.554;14.454;2023-11-18T07:09:59;19.63;;;17.52;;
37164;SDS011;23057;48.554;14.454;2023-11-18T07:12:31;15.63;;;13.98;;
37164;SDS011;23057;48.554;14.454;2023-11-18T07:15:08;7.15;;;6.45;;
37164;SDS011;23057;48.554;14.454;2023-11-18T07:17:40;6.60;;;3.92;;
37164;SDS011;23057;48.554;14.454;2023-11-18T07:20:13;6.38;;;3.70;;
37164;SDS011;23057;48.554;14.454;2023-11-18T07:22:43;5.68;;;3.55;;
37164;SDS011;23057;48.554;14.454;2023-11-18T07:25:15;7.00;;;4.65;;
37164;SDS011;23057;48.554;14.454;2023-11-18T07:27:45;7.72;;;4.53;;
37164;SDS011;23057;48.554;14.454;2023-11-18T07:30:16;4.95;;;2.90;;
37164;SDS011;23057;48.554;14.454;2023-11-18T07:32:48;4.05;;;1.95;;
37164;SDS011;23057;48.554;14.454;2023-11-18T07:35:20;3.05;;;1.95;;
37164;SDS011;23057;48.554;14.454;2023-11-18T07:37:52;5.65;;;3.30;;
37164;SDS011;23057;48.554;14.454;2023-11-18T07:40:23;7.22;;;2.97;;
37164;SDS011;23057;48.554;14.454;2023-11-18T07:42:58;4.55;;;2.35;;
37164;SDS011;23057;48.554;14.454;2023-11-18T07:45:34;6.07;;;1.67;;
37164;SDS011;23057;48.554;14.454;2023-11-18T07:48:08;3.47;;;1.92;;
37164;SDS011;23057;48.554;14.454;2023-11-18T07:50:47;4.40;;;2.60;;
37164;SDS011;23057;48.554;14.454;2023-11-18T07:53:18;5.57;;;2.90;;
37164;SDS011;23057;48.554;14.454;2023-11-18T07:55:48;3.47;;;2.05;;
37164;SDS011;23057;48.554;14.454;2023-11-18T07:58:20;3.60;;;2.63;;
37164;SDS011;23057;48.554;14.454;2023-11-18T08:00:53;2.25;;;1.75;;
37164;SDS011;23057;48.554;14.454;2023-11-18T08:03:24;2.30;;;1.48;;
37164;SDS011;23057;48.554;14.454;2023-11-18T08:05:55;3.35;;;1.65;;
37164;SDS011;23057;48.554;14.454;2023-11-18T08:08:26;3.47;;;1.65;;
37164;SDS011;23057;48.554;14.454;2023-11-18T08:10:57;2.63;;;1.50;;
37164;SDS011;23057;48.554;14.454;2023-11-18T08:13:28;3.10;;;1.90;;
37164;SDS011;23057;48.554;14.454;2023-11-18T08:15:59;2.45;;;1.58;;
37164;SDS011;23057;48.554;14.454;2023-11-18T08:18:31;2.45;;;1.60;;
37164;SDS011;23057;48.554;14.454;2023-11-18T08:21:02;2.38;;;1.42;;
37164;SDS011;23057;48.554;14.454;2023-11-18T08:23:35;3.97;;;1.73;;
37164;SDS011;23057;48.554;14.454;2023-11-18T08:26:05;2.22;;;1.58;;
37164;SDS011;23057;48.554;14.454;2023-11-18T08:28:36;2.75;;;1.80;;
37164;SDS011;23057;48.554;14.454;2023-11-18T08:31:07;2.05;;;1.38;;
37164;SDS011;23057;48.554;14.454;2023-11-18T08:33:39;3.88;;;2.13;;
37164;SDS011;23057;48.554;14.454;2023-11-18T08:36:10;4.68;;;1.73;;
37164;SDS011;23057;48.554;14.454;2023-11-18T08:38:42;5.72;;;2.10;;
37164;SDS011;23057;48.554;14.454;2023-11-18T08:41:15;4.25;;;1.80;;
37164;SDS011;23057;48.554;14.454;2023-11-18T08:43:46;4.65;;;2.47;;
37164;SDS011;23057;48.554;14.454;2023-11-18T08:46:19;2.72;;;1.70;;
37164;SDS011;23057;48.554;14.454;2023-11-18T08:48:49;2.90;;;1.85;;
37164;SDS011;23057;48.554;14.454;2023-11-18T08:51:21;2.53;;;1.73;;
37164;SDS011;23057;48.554;14.454;2023-11-18T08:53:54;1.95;;;1.65;;
37164;SDS011;23057;48.554;14.454;2023-11-18T08:56:25;3.10;;;1.60;;
37164;SDS011;23057;48.554;14.454;2023-11-18T08:59:04;3.25;;;1.42;;
37164;SDS011;23057;48.554;14.454;2023-11-18T09:01:38;2.33;;;1.58;;
37164;SDS011;23057;48.554;14.454;2023-11-18T09:04:12;3.53;;;2.33;;
37164;SDS011;23057;48.554;14.454;2023-11-18T09:06:44;4.47;;;2.50;;
37164;SDS011;23057;48.554;14.454;2023-11-18T09:09:15;4.20;;;2.30;;
37164;SDS011;23057;48.554;14.454;2023-11-18T09:11:46;3.63;;;2.72;;
37164;SDS011;23057;48.554;14.454;2023-11-18T09:14:18;4.32;;;2.40;;
37164;SDS011;23057;48.554;14.454;2023-11-18T09:16:50;5.30;;;2.65;;
37164;SDS011;23057;48.554;14.454;2023-11-18T09:19:22;3.20;;;2.25;;
37164;SDS011;23057;48.554;14.454;2023-11-18T09:21:52;3.55;;;2.45;;
37164;SDS011;23057;48.554;14.454;2023-11-18T09:24:24;4.75;;;2.50;;
37164;SDS011;23057;48.554;14.454;2023-11-18T09:26:55;3.45;;;2.83;;
37164;SDS011;23057;48.554;14.454;2023-11-18T09:29:26;4.43;;;2.40;;
37164;SDS011;23057;48.554;14.454;2023-11-18T09:31:58;5.25;;;2.13;;
37164;SDS011;23057;48.554;14.454;2023-11-18T09:34:29;7.50;;;3.67;;
37164;SDS011;23057;48.554;14.454;2023-11-18T09:37:03;6.40;;;3.30;;
37164;SDS011;23057;48.554;14.454;2023-11-18T09:39:34;3.17;;;2.42;;
37164;SDS011;23057;48.554;14.454;2023-11-18T09:42:08;10.25;;;4.40;;
37164;SDS011;23057;48.554;14.454;2023-11-18T09:44:39;10.13;;;4.13;;
37164;SDS011;23057;48.554;14.454;2023-11-18T09:47:10;3.85;;;2.70;;
37164;SDS011;23057;48.554;14.454;2023-11-18T09:49:46;5.80;;;3.38;;
37164;SDS011;23057;48.554;14.454;2023-11-18T09:52:26;4.95;;;2.97;;
37164;SDS011;23057;48.554;14.454;2023-11-18T09:55:02;2.92;;;1.88;;
37164;SDS011;23057;48.554;14.454;2023-11-18T09:57:51;4.03;;;2.55;;
37164;SDS011;23057;48.554;14.454;2023-11-18T10:00:34;3.47;;;2.30;;
37164;SDS011;23057;48.554;14.454;2023-11-18T10:03:09;3.20;;;2.03;;
37164;SDS011;23057;48.554;14.454;2023-11-18T10:05:45;3.42;;;2.50;;
37164;SDS011;23057;48.554;14.454;2023-11-18T10:08:17;7.60;;;3.58;;
37164;SDS011;23057;48.554;14.454;2023-11-18T10:10:47;3.83;;;2.42;;
37164;SDS011;23057;48.554;14.454;2023-11-18T10:13:19;5.97;;;3.10;;
37164;SDS011;23057;48.554;14.454;2023-11-18T10:15:52;5.93;;;3.15;;
37164;SDS011;23057;48.554;14.454;2023-11-18T10:18:23;5.20;;;2.60;;
37164;SDS011;23057;48.554;14.454;2023-11-18T10:20:58;3.10;;;2.17;;
37164;SDS011;23057;48.554;14.454;2023-11-18T10:23:29;4.28;;;3.03;;
37164;SDS011;23057;48.554;14.454;2023-11-18T10:26:03;4.13;;;2.67;;
37164;SDS011;23057;48.554;14.454;2023-11-18T10:28:37;20.35;;;7.88;;
37164;SDS011;23057;48.554;14.454;2023-11-18T10:31:08;6.63;;;3.05;;
37164;SDS011;23057;48.554;14.454;2023-11-18T10:33:45;15.52;;;6.80;;
37164;SDS011;23057;48.554;14.454;2023-11-18T10:36:18;5.63;;;2.97;;
37164;SDS011;23057;48.554;14.454;2023-11-18T10:38:53;3.67;;;2.20;;
37164;SDS011;23057;48.554;14.454;2023-11-18T10:41:27;2.65;;;1.98;;
37164;SDS011;23057;48.554;14.454;2023-11-18T10:44:07;2.60;;;1.80;;
37164;SDS011;23057;48.554;14.454;2023-11-18T10:46:51;5.05;;;3.10;;
37164;SDS011;23057;48.554;14.454;2023-11-18T10:49:24;20.42;;;7.68;;
37164;SDS011;23057;48.554;14.454;2023-11-18T10:52:06;3.03;;;2.00;;
37164;SDS011;23057;48.554;14.454;2023-11-18T10:54:49;12.10;;;6.95;;
37164;SDS011;23057;48.554;14.454;2023-11-18T10:57:24;5.10;;;3.70;;
37164;SDS011;23057;48.554;14.454;2023-11-18T10:59:59;5.20;;;2.92;;
37164;SDS011;23057;48.554;14.454;2023-11-18T11:02:44;2.83;;;2.20;;
37164;SDS011;23057;48.554;14.454;2023-11-18T11:05:27;2.90;;;1.85;;
37164;SDS011;23057;48.554;14.454;2023-11-18T11:08:02;3.80;;;2.45;;
37164;SDS011;23057;48.554;14.454;2023-11-18T11:10:35;3.97;;;2.03;;
37164;SDS011;23057;48.554;14.454;2023-11-18T11:13:05;4.28;;;1.95;;
37164;SDS011;23057;48.554;14.454;2023-11-18T11:15:42;3.53;;;2.05;;
37164;SDS011;23057;48.554;14.454;2023-11-18T11:18:18;3.00;;;2.10;;
37164;SDS011;23057;48.554;14.454;2023-11-18T11:20:56;4.20;;;1.70;;
37164;SDS011;23057;48.554;14.454;2023-11-18T11:30:10;3.88;;;2.20;;
37164;SDS011;23057;48.554;14.454;2023-11-18T11:33:10;3.10;;;2.10;;
37164;SDS011;23057;48.554;14.454;2023-11-18T11:36:12;2.20;;;1.83;;
37164;SDS011;23057;48.554;14.454;2023-11-18T11:39:01;3.20;;;2.05;;
37164;SDS011;23057;48.554;14.454;2023-11-18T11:41:33;3.40;;;1.80;;
37164;SDS011;23057;48.554;14.454;2023-11-18T11:44:04;2.42;;;1.90;;
37164;SDS011;23057;48.554;14.454;2023-11-18T11:46:37;3.03;;;2.08;;
37164;SDS011;23057;48.554;14.454;2023-11-18T11:49:11;3.78;;;2.10;;
37164;SDS011;23057;48.554;14.454;2023-11-18T11:51:59;2.30;;;1.98;;
37164;SDS011;23057;48.554;14.454;2023-11-18T11:55:19;2.28;;;1.67;;
37164;SDS011;23057;48.554;14.454;2023-11-18T11:58:24;2.25;;;1.60;;
37164;SDS011;23057;48.554;14.454;2023-11-18T12:04:04;4.20;;;2.17;;
37164;SDS011;23057;48.554;14.454;2023-11-18T12:06:43;3.35;;;1.90;;
37164;SDS011;23057;48.554;14.454;2023-11-18T12:09:16;2.97;;;2.08;;
37164;SDS011;23057;48.554;14.454;2023-11-18T12:11:50;3.17;;;2.10;;
37164;SDS011;23057;48.554;14.454;2023-11-18T12:14:20;3.40;;;2.10;;
37164;SDS011;23057;48.554;14.454;2023-11-18T12:17:07;2.97;;;1.95;;
37164;SDS011;23057;48.554;14.454;2023-11-18T12:19:50;3.38;;;1.80;;
37164;SDS011;23057;48.554;14.454;2023-11-18T12:22:28;4.28;;;1.85;;
37164;SDS011;23057;48.554;14.454;2023-11-18T12:25:45;2.70;;;1.95;;
37164;SDS011;23057;48.554;14.454;2023-11-18T12:28:29;2.08;;;1.70;;
37164;SDS011;23057;48.554;14.454;2023-11-18T12:31:15;1.67;;;1.58;;
37164;SDS011;23057;48.554;14.454;2023-11-18T12:34:10;4.00;;;1.65;;
37164;SDS011;23057;48.554;14.454;2023-11-18T12:43:47;2.85;;;1.50;;
37164;SDS011;23057;48.554;14.454;2023-11-18T12:46:47;3.15;;;1.23;;
37164;SDS011;23057;48.554;14.454;2023-11-18T12:49:20;2.58;;;1.75;;
37164;SDS011;23057;48.554;14.454;2023-11-18T12:51:54;1.40;;;1.13;;
37164;SDS011;23057;48.554;14.454;2023-11-18T12:54:26;1.60;;;1.10;;
37164;SDS011;23057;48.554;14.454;2023-11-18T12:57:00;1.88;;;1.20;;
37164;SDS011;23057;48.554;14.454;2023-11-18T12:59:31;2.63;;;1.20;;
37164;SDS011;23057;48.554;14.454;2023-11-18T13:02:07;1.63;;;1.33;;
37164;SDS011;23057;48.554;14.454;2023-11-18T13:04:43;2.88;;;1.27;;
37164;SDS011;23057;48.554;14.454;2023-11-18T13:07:17;2.20;;;1.40;;
37164;SDS011;23057;48.554;14.454;2023-11-18T13:09:52;2.65;;;1.30;;
37164;SDS011;23057;48.554;14.454;2023-11-18T13:12:24;1.80;;;1.20;;
37164;SDS011;23057;48.554;14.454;2023-11-18T13:14:57;1.58;;;1.27;;
37164;SDS011;23057;48.554;14.454;2023-11-18T13:17:28;1.20;;;1.10;;
37164;SDS011;23057;48.554;14.454;2023-11-18T13:20:10;1.70;;;1.38;;
37164;SDS011;23057;48.554;14.454;2023-11-18T13:22:44;2.95;;;1.40;;
37164;SDS011;23057;48.554;14.454;2023-11-18T13:25:14;2.17;;;1.30;;
37164;SDS011;23057;48.554;14.454;2023-11-18T13:27:47;1.58;;;1.40;;
37164;SDS011;23057;48.554;14.454;2023-11-18T13:30:19;2.28;;;1.40;;
37164;SDS011;23057;48.554;14.454;2023-11-18T13:32:50;2.67;;;1.17;;
37164;SDS011;23057;48.554;14.454;2023-11-18T13:35:22;14.43;;;10.25;;
37164;SDS011;23057;48.554;14.454;2023-11-18T13:37:53;3.30;;;3.00;;
37164;SDS011;23057;48.554;14.454;2023-11-18T13:40:25;5.28;;;4.43;;
37164;SDS011;23057;48.554;14.454;2023-11-18T13:43:02;7.93;;;7.32;;
37164;SDS011;23057;48.554;14.454;2023-11-18T13:45:38;3.20;;;2.90;;
37164;SDS011;23057;48.554;14.454;2023-11-18T13:48:12;3.58;;;3.22;;
37164;SDS011;23057;48.554;14.454;2023-11-18T13:50:43;4.18;;;2.90;;
37164;SDS011;23057;48.554;14.454;2023-11-18T13:53:15;3.50;;;1.77;;
37164;SDS011;23057;48.554;14.454;2023-11-18T13:55:46;4.00;;;3.67;;
37164;SDS011;23057;48.554;14.454;2023-11-18T13:58:18;105.47;;;7.18;;
37164;SDS011;23057;48.554;14.454;2023-11-18T14:00:49;4.22;;;2.35;;
37164;SDS011;23057;48.554;14.454;2023-11-18T14:03:21;2.45;;;2.05;;
37164;SDS011;23057;48.554;14.454;2023-11-18T14:05:57;3.05;;;2.05;;
37164;SDS011;23057;48.554;14.454;2023-11-18T14:11:05;14.60;;;13.10;;
37164;SDS011;23057;48.554;14.454;2023-11-18T14:13:39;7.05;;;5.40;;
37164;SDS011;23057;48.554;14.454;2023-11-18T14:16:09;10.95;;;6.88;;
37164;SDS011;23057;48.554;14.454;2023-11-18T14:18:42;6.72;;;3.92;;
37164;SDS011;23057;48.554;14.454;2023-11-18T14:21:13;4.03;;;2.90;;
37164;SDS011;23057;48.554;14.454;2023-11-18T14:23:44;2.92;;;1.80;;
37164;SDS011;23057;48.554;14.454;2023-11-18T14:26:15;3.47;;;1.90;;
37164;SDS011;23057;48.554;14.454;2023-11-18T14:28:45;3.72;;;2.50;;
37164;SDS011;23057;48.554;14.454;2023-11-18T14:31:16;3.33;;;2.22;;
37164;SDS011;23057;48.554;14.454;2023-11-18T14:33:48;20.77;;;7.03;;
37164;SDS011;23057;48.554;14.454;2023-11-18T14:36:18;19.95;;;6.70;;
37164;SDS011;23057;48.554;14.454;2023-11-18T14:38:49;10.80;;;3.90;;
37164;SDS011;23057;48.554;14.454;2023-11-18T14:41:20;16.95;;;6.45;;
37164;SDS011;23057;48.554;14.454;2023-11-18T14:43:55;19.48;;;6.78;;
37164;SDS011;23057;48.554;14.454;2023-11-18T14:46:32;11.80;;;5.18;;
37164;SDS011;23057;48.554;14.454;2023-11-18T14:49:04;16.40;;;7.40;;
37164;SDS011;23057;48.554;14.454;2023-11-18T14:51:35;4.68;;;3.30;;
37164;SDS011;23057;48.554;14.454;2023-11-18T14:54:06;6.43;;;4.13;;
37164;SDS011;23057;48.554;14.454;2023-11-18T14:56:38;7.05;;;4.20;;
37164;SDS011;23057;48.554;14.454;2023-11-18T14:59:09;8.20;;;4.35;;
37164;SDS011;23057;48.554;14.454;2023-11-18T15:01:40;7.78;;;4.50;;
37164;SDS011;23057;48.554;14.454;2023-11-18T15:04:14;7.32;;;3.90;;
37164;SDS011;23057;48.554;14.454;2023-11-18T15:06:44;7.75;;;5.05;;
37164;SDS011;23057;48.554;14.454;2023-11-18T15:09:16;6.60;;;5.40;;
37164;SDS011;23057;48.554;14.454;2023-11-18T15:11:47;5.97;;;3.70;;
37164;SDS011;23057;48.554;14.454;2023-11-18T15:14:20;10.57;;;6.90;;
37164;SDS011;23057;48.554;14.454;2023-11-18T15:16:51;7.32;;;3.65;;
37164;SDS011;23057;48.554;14.454;2023-11-18T15:19:23;7.63;;;4.70;;
37164;SDS011;23057;48.554;14.454;2023-11-18T15:21:54;13.95;;;7.38;;
37164;SDS011;23057;48.554;14.454;2023-11-18T15:24:24;18.67;;;10.60;;
37164;SDS011;23057;48.554;14.454;2023-11-18T15:26:55;15.65;;;8.10;;
37164;SDS011;23057;48.554;14.454;2023-11-18T15:29:27;32.13;;;11.68;;
37164;SDS011;23057;48.554;14.454;2023-11-18T15:32:03;18.65;;;8.98;;
37164;SDS011;23057;48.554;14.454;2023-11-18T15:34:35;8.38;;;4.90;;